Time;durP1;ratioP1;P1;durP2;ratioP2;P2;SDS_P1;SDS_P2;PMS_P1;PMS_P2;Temp;Humidity;BMP_temperature;BMP_pressure;BME280_temperature;BME280_humidity;BME280_pressure;Samples;Min_cycle;Max_cycle;Signal;HPM_P1;HPM_P2
2022/11/18 00:02:16;;;;;;;23.33;10.23;;;1.20;99.90;;;;;;10455978;28;20031;-83
2022/11/18 00:07:16;;;;;;;20.83;9.13;;;1.30;99.90;;;;;;10464005;28;20470;-81
2022/11/18 00:17:36;;;;;;;16.73;8.37;;;1.20;99.90;;;;;;10465390;28;20041;-85
2022/11/18 00:22:36;;;;;;;20.77;9.17;;;1.10;99.90;;;;;;10457990;28;20453;-85
2022/11/18 00:27:37;;;;;;;17.23;8.53;;;1.10;99.90;;;;;;10477545;28;20041;-82
2022/11/18 00:32:37;;;;;;;18.00;8.27;;;1.10;99.90;;;;;;10464984;28;20087;-85
2022/11/18 00:37:38;;;;;;;20.30;9.17;;;1.10;99.90;;;;;;10481666;28;20043;-80
2022/11/18 00:42:50;;;;;;;17.13;8.83;;;1.10;99.90;;;;;;10453600;28;20055;-81
2022/11/18 00:47:51;;;;;;;18.30;9.13;;;1.00;99.90;;;;;;10465963;28;20086;-83
2022/11/18 00:52:51;;;;;;;17.80;8.50;;;1.10;99.90;;;;;;10476864;28;20078;-85
2022/11/18 00:57:52;;;;;;;18.57;9.07;;;1.20;99.90;;;;;;10476122;28;20078;-81
2022/11/18 01:02:53;;;;;;;20.37;9.80;;;1.10;99.90;;;;;;10465040;28;20338;-81
2022/11/18 01:07:53;;;;;;;19.97;9.87;;;1.00;99.90;;;;;;10470336;28;20413;-82
2022/11/18 01:18:33;;;;;;;16.03;7.90;;;1.10;99.90;;;;;;10397919;28;20793;-80
2022/11/18 01:23:33;;;;;;;17.73;8.37;;;1.00;99.90;;;;;;10431793;28;20049;-83
2022/11/18 01:28:34;;;;;;;18.97;9.13;;;1.00;99.90;;;;;;10453626;28;20036;-81
2022/11/18 01:33:35;;;;;;;17.53;7.97;;;1.00;99.90;;;;;;10468209;28;20032;-83
2022/11/18 01:38:36;;;;;;;19.03;9.23;;;1.10;99.90;;;;;;10475765;28;20032;-80
2022/11/18 01:43:56;;;;;;;16.50;8.20;;;1.00;99.90;;;;;;10469629;28;20075;-85
2022/11/18 01:49:13;;;;;;;17.53;8.93;;;1.00;99.90;;;;;;10473415;28;20040;-81
2022/11/18 01:54:18;;;;;;;17.70;8.73;;;0.90;99.90;;;;;;10468694;28;20469;-80
2022/11/18 01:59:26;;;;;;;15.35;8.00;;;0.90;99.90;;;;;;10464522;28;20033;-81
2022/11/18 02:04:27;;;;;;;18.53;8.47;;;0.90;99.90;;;;;;10474561;28;20040;-81
2022/11/18 02:09:28;;;;;;;18.87;8.77;;;0.90;99.90;;;;;;10476583;28;20068;-83
2022/11/18 02:14:32;;;;;;;13.87;7.97;;;0.90;99.90;;;;;;10466371;28;20040;-85
2022/11/18 02:19:45;;;;;;;19.10;8.90;;;0.90;99.90;;;;;;10459723;28;20078;-81
2022/11/18 02:25:30;;;;;;;19.20;8.83;;;0.80;99.90;;;;;;10454111;28;20032;-84
2022/11/18 02:30:41;;;;;;;16.23;8.30;;;0.80;99.90;;;;;;10436459;28;20059;-80
2022/11/18 02:35:57;;;;;;;20.87;9.80;;;0.80;99.90;;;;;;10463212;28;20029;-81
2022/11/18 02:41:06;;;;;;;16.58;7.93;;;0.80;99.90;;;;;;10473710;28;20047;-81
2022/11/18 02:46:15;;;;;;;19.03;8.80;;;0.80;99.90;;;;;;10463701;28;20020;-84
2022/11/18 02:51:20;;;;;;;19.63;9.67;;;0.70;99.90;;;;;;10473596;28;20801;-83
2022/11/18 02:56:23;;;;;;;21.65;9.77;;;0.60;99.90;;;;;;10481467;28;20036;-81
2022/11/18 03:01:32;;;;;;;20.67;9.63;;;0.70;99.90;;;;;;10461712;28;20069;-83
2022/11/18 03:06:49;;;;;;;20.80;9.63;;;0.80;99.90;;;;;;10452189;28;20622;-81
2022/11/18 03:12:00;;;;;;;22.30;8.93;;;0.90;99.90;;;;;;10444977;28;20114;-82
2022/11/18 03:17:33;;;;;;;16.87;8.53;;;1.00;99.90;;;;;;10447689;28;20021;-81
2022/11/18 03:22:51;;;;;;;19.67;8.33;;;0.90;99.90;;;;;;10473644;28;20033;-80
2022/11/18 03:27:55;;;;;;;22.93;9.53;;;0.90;99.90;;;;;;10470601;28;20048;-81
2022/11/18 03:33:01;;;;;;;19.20;9.10;;;0.90;99.90;;;;;;10451877;28;20036;-83
2022/11/18 03:38:05;;;;;;;;;;;1.00;99.90;;;;;;10466010;28;20121;-80
2022/11/18 03:43:14;;;;;;;21.17;9.67;;;1.00;99.90;;;;;;10481341;28;19995;-82
2022/11/18 03:48:27;;;;;;;21.73;10.17;;;1.00;99.90;;;;;;10469541;28;20144;-84
2022/11/18 03:53:32;;;;;;;23.90;10.33;;;0.90;99.90;;;;;;10490019;28;20027;-81
2022/11/18 03:58:39;;;;;;;89.27;30.00;;;0.80;99.90;;;;;;10466271;28;20060;-80
2022/11/18 04:03:39;;;;;;;75.57;25.17;;;0.80;99.90;;;;;;10461618;28;20295;-81
2022/11/18 04:08:43;;;;;;;77.23;25.80;;;0.90;99.90;;;;;;10486022;28;20045;-81
2022/11/18 04:13:44;;;;;;;32.03;14.70;;;0.90;99.90;;;;;;10460146;28;20439;-84
2022/11/18 04:18:45;;;;;;;28.13;12.20;;;1.00;99.90;;;;;;10469907;28;20120;-80
2022/11/18 04:23:45;;;;;;;26.43;13.30;;;0.90;99.90;;;;;;10477491;28;20043;-80
2022/11/18 04:28:46;;;;;;;32.70;14.00;;;0.80;99.90;;;;;;10471916;28;20037;-84
2022/11/18 04:33:46;;;;;;;30.67;14.00;;;0.80;99.90;;;;;;10469910;28;20032;-84
2022/11/18 04:38:47;;;;;;;30.10;13.43;;;0.80;99.90;;;;;;10474644;28;20041;-84
2022/11/18 04:43:47;;;;;;;31.40;15.50;;;0.80;99.90;;;;;;10479936;28;20036;-83
2022/11/18 04:48:48;;;;;;;31.13;13.50;;;0.90;99.90;;;;;;10469544;28;20029;-77
2022/11/18 04:53:48;;;;;;;35.43;15.83;;;0.90;99.90;;;;;;10462552;28;20472;-81
2022/11/18 04:58:49;;;;;;;33.27;14.60;;;0.90;99.90;;;;;;10468029;28;20044;-80
2022/11/18 05:03:49;;;;;;;31.67;14.33;;;0.90;99.90;;;;;;10460430;28;20239;-81
2022/11/18 05:08:50;;;;;;;36.63;15.27;;;0.90;99.90;;;;;;10475473;28;20143;-80
2022/11/18 05:13:51;;;;;;;37.47;15.37;;;0.90;99.90;;;;;;10447830;28;20040;-80
2022/11/18 05:18:51;;;;;;;36.57;15.10;;;0.90;99.90;;;;;;10447637;28;20025;-80
2022/11/18 05:23:52;;;;;;;37.00;15.20;;;0.80;99.90;;;;;;10456015;28;20041;-80
2022/11/18 05:28:53;;;;;;;34.87;15.67;;;0.70;99.90;;;;;;10424188;28;20028;-80
2022/11/18 05:33:53;;;;;;;34.50;15.40;;;0.70;99.90;;;;;;10454445;28;20040;-80
2022/11/18 05:38:57;;;;;;;36.60;14.93;;;0.60;99.90;;;;;;10456041;28;20549;-81
2022/11/18 05:43:58;;;;;;;28.13;12.90;;;0.60;99.90;;;;;;10472661;28;20043;-79
2022/11/18 05:48:58;;;;;;;30.57;13.50;;;0.50;99.90;;;;;;10486644;28;20030;-84
2022/11/18 05:54:03;;;;;;;32.83;12.70;;;0.40;99.90;;;;;;10473572;28;20042;-81
2022/11/18 05:59:04;;;;;;;29.67;13.37;;;0.50;99.90;;;;;;10472443;28;20029;-80
2022/11/18 06:04:12;;;;;;;30.07;13.80;;;0.50;99.90;;;;;;10459736;28;20055;-80
2022/11/18 06:09:17;;;;;;;33.23;14.30;;;0.50;99.90;;;;;;10471667;28;20048;-81
2022/11/18 06:14:37;;;;;;;34.22;14.75;;;0.50;99.90;;;;;;10485093;28;20016;-79
2022/11/18 06:19:38;;;;;;;38.20;16.37;;;0.50;99.90;;;;;;10453909;28;20031;-80
2022/11/18 06:24:39;;;;;;;38.23;17.60;;;0.50;99.90;;;;;;10461123;28;20037;-80
2022/11/18 06:29:40;;;;;;;65.53;23.00;;;0.60;99.90;;;;;;10452795;28;20025;-81
2022/11/18 06:34:40;;;;;;;107.77;35.93;;;0.60;99.90;;;;;;10484469;28;20025;-80
2022/11/18 06:39:41;;;;;;;51.73;20.67;;;0.70;99.90;;;;;;10484438;28;20052;-80
2022/11/18 06:44:41;;;;;;;50.57;19.17;;;0.70;99.90;;;;;;10470211;28;20677;-80
2022/11/18 06:49:42;;;;;;;59.97;20.13;;;0.60;99.90;;;;;;10483932;28;20031;-82
2022/11/18 06:54:42;;;;;;;121.97;36.57;;;0.60;99.90;;;;;;10466344;28;20028;-80
2022/11/18 06:59:43;;;;;;;51.03;19.60;;;0.60;99.90;;;;;;10483714;28;20032;-80
2022/11/18 07:04:44;;;;;;;50.17;19.63;;;0.70;99.90;;;;;;10484140;28;20025;-80
2022/11/18 07:09:45;;;;;;;38.73;16.60;;;0.60;99.90;;;;;;10483929;28;20608;-80
2022/11/18 07:14:46;;;;;;;70.87;24.50;;;0.60;99.90;;;;;;10483180;28;20021;-80
2022/11/18 07:19:46;;;;;;;47.00;17.67;;;0.70;99.90;;;;;;10483066;28;20369;-82
2022/11/18 07:24:47;;;;;;;39.27;18.17;;;0.60;99.90;;;;;;10482924;28;20056;-81
2022/11/18 07:29:47;;;;;;;49.63;22.23;;;0.60;99.90;;;;;;10483044;28;20033;-80
2022/11/18 07:34:48;;;;;;;60.33;24.07;;;0.60;99.90;;;;;;10482921;28;20028;-80
2022/11/18 07:39:48;;;;;;;34.07;14.97;;;0.70;99.90;;;;;;10483570;28;20618;-80
2022/11/18 07:44:49;;;;;;;37.30;16.50;;;0.70;99.90;;;;;;10469103;28;20076;-80
2022/11/18 07:49:49;;;;;;;40.50;16.70;;;0.70;99.90;;;;;;10483598;28;20037;-82
2022/11/18 07:54:50;;;;;;;54.00;24.47;;;0.70;99.90;;;;;;10482435;28;20039;-82
2022/11/18 07:59:50;;;;;;;55.73;27.23;;;0.60;99.90;;;;;;10482548;28;20029;-80
2022/11/18 08:04:51;;;;;;;52.93;28.47;;;0.70;99.90;;;;;;10482600;28;20036;-81
2022/11/18 08:09:52;;;;;;;49.70;24.33;;;0.70;99.90;;;;;;10482748;28;20696;-80
2022/11/18 08:14:52;;;;;;;42.03;19.17;;;0.60;99.90;;;;;;10482362;28;20464;-80
2022/11/18 08:19:53;;;;;;;38.10;18.87;;;0.70;99.90;;;;;;10482698;28;20082;-80
2022/11/18 08:24:53;;;;;;;38.73;16.20;;;0.60;99.90;;;;;;10482431;28;20064;-80
2022/11/18 08:29:54;;;;;;;43.37;18.70;;;0.50;99.90;;;;;;10481690;28;20025;-80
2022/11/18 08:34:54;;;;;;;35.67;17.87;;;0.60;99.90;;;;;;10466766;28;20036;-79
2022/11/18 08:39:55;;;;;;;35.17;17.97;;;0.50;99.90;;;;;;10487432;28;20028;-80
2022/11/18 08:44:55;;;;;;;36.83;16.13;;;0.30;99.90;;;;;;10473369;28;20399;-82
2022/11/18 08:49:56;;;;;;;31.87;15.40;;;0.30;99.90;;;;;;10474912;28;20032;-82
2022/11/18 08:54:56;;;;;;;37.87;17.17;;;0.30;99.90;;;;;;10488411;28;20031;-80
2022/11/18 08:59:57;;;;;;;40.03;17.93;;;0.30;99.90;;;;;;10488935;28;20404;-79
2022/11/18 09:04:57;;;;;;;37.33;17.27;;;0.20;99.90;;;;;;10488721;28;20036;-83
2022/11/18 09:09:58;;;;;;;41.27;17.20;;;0.20;99.90;;;;;;10488110;28;20052;-80
2022/11/18 09:14:58;;;;;;;37.30;17.27;;;0.10;99.90;;;;;;10487796;28;20384;-81
2022/11/18 09:19:59;;;;;;;40.77;16.60;;;0.10;99.90;;;;;;10487282;28;20043;-80
2022/11/18 09:24:59;;;;;;;40.90;18.17;;;0.00;99.90;;;;;;10487599;28;20047;-79
2022/11/18 09:30:00;;;;;;;39.33;17.47;;;-0.10;99.90;;;;;;10469135;28;20116;-82
2022/11/18 09:35:00;;;;;;;42.23;18.93;;;-0.10;99.90;;;;;;10487377;28;20085;-80
2022/11/18 09:40:01;;;;;;;39.60;17.47;;;-0.10;99.90;;;;;;10486715;28;20039;-80
2022/11/18 09:45:18;;;;;;;37.13;17.20;;;-0.10;99.90;;;;;;10453828;28;20063;-80
2022/11/18 09:50:21;;;;;;;39.63;18.20;;;-0.20;99.90;;;;;;10486776;28;20028;-80
2022/11/18 09:55:22;;;;;;;38.83;16.90;;;-0.20;99.90;;;;;;10486036;28;20108;-80
2022/11/18 10:00:26;;;;;;;36.23;16.97;;;-0.20;99.90;;;;;;10468912;28;20123;-80
2022/11/18 10:05:29;;;;;;;33.23;15.17;;;-0.30;99.90;;;;;;10485955;28;20044;-81
2022/11/18 10:10:48;;;;;;;36.77;17.20;;;-0.40;99.90;;;;;;10486393;28;20060;-82
2022/11/18 10:16:01;;;;;;;35.50;16.47;;;-0.30;99.90;;;;;;10453582;28;20032;-81
2022/11/18 10:21:19;;;;;;;35.80;16.23;;;-0.30;99.90;;;;;;10485239;28;20028;-81
2022/11/18 10:26:32;;;;;;;36.40;16.33;;;-0.30;99.90;;;;;;10485556;28;20464;-81
2022/11/18 10:31:39;;;;;;;35.03;15.87;;;-0.20;99.90;;;;;;10467117;28;20020;-81
2022/11/18 10:36:40;;;;;;;40.80;16.27;;;-0.30;99.90;;;;;;10470759;28;20028;-80
2022/11/18 10:41:50;;;;;;;39.67;17.67;;;-0.40;99.90;;;;;;10454499;28;20033;-81
2022/11/18 10:46:50;;;;;;;37.47;16.07;;;-0.50;99.90;;;;;;10484093;28;20037;-80
2022/11/18 10:52:12;;;;;;;40.27;17.40;;;-0.50;99.90;;;;;;10484416;28;20028;-80
2022/11/18 10:57:17;;;;;;;38.00;17.97;;;-0.40;99.90;;;;;;10484223;28;20456;-81
2022/11/18 11:02:31;;;;;;;37.10;15.18;;;-0.40;99.90;;;;;;10484513;28;20044;-81
2022/11/18 11:07:33;;;;;;;38.20;17.03;;;-0.40;99.90;;;;;;10469744;28;20559;-82
2022/11/18 11:12:37;;;;;;;38.20;16.00;;;-0.40;99.90;;;;;;10483783;28;20040;-80
2022/11/18 11:17:46;;;;;;;35.10;15.77;;;-0.30;99.90;;;;;;10483719;28;20107;-81
2022/11/18 11:22:47;;;;;;;31.83;15.93;;;-0.30;99.90;;;;;;10483390;28;20024;-81
2022/11/18 11:28:00;;;;;;;36.60;16.77;;;-0.30;99.90;;;;;;10483367;28;20032;-83
2022/11/18 11:33:08;;;;;;;37.70;14.77;;;-0.40;99.90;;;;;;10483218;28;20361;-81
2022/11/18 11:38:34;;;;;;;35.20;15.07;;;-0.40;99.90;;;;;;10483221;28;20029;-81
2022/11/18 11:43:55;;;;;;;37.47;16.17;;;-0.40;99.90;;;;;;10469390;28;20062;-80
2022/11/18 11:49:21;;;;;;;67.80;28.73;;;-0.40;99.90;;;;;;10484081;28;20024;-81
2022/11/18 11:54:30;;;;;;;486.77;261.67;;;-0.40;99.90;;;;;;10482534;28;20107;-81
2022/11/18 11:59:37;;;;;;;113.27;51.23;;;-0.50;99.90;;;;;;10483229;28;20270;-82
2022/11/18 12:04:48;;;;;;;33.70;17.13;;;-0.50;99.90;;;;;;10482582;28;20033;-80
2022/11/18 12:10:13;;;;;;;49.63;20.77;;;-0.50;99.90;;;;;;10485170;28;20052;-81
2022/11/18 12:15:23;;;;;;;281.27;134.83;;;-0.60;99.90;;;;;;10491210;28;20035;-80
2022/11/18 12:20:46;;;;;;;617.57;346.30;;;-0.60;99.90;;;;;;10490065;28;20109;-80
2022/11/18 12:25:47;;;;;;;56.47;28.77;;;-0.60;99.90;;;;;;10490261;28;20092;-82
2022/11/18 12:30:47;;;;;;;67.80;37.67;;;-0.60;99.90;;;;;;10490688;28;20028;-83
2022/11/18 12:35:49;;;;;;;45.57;23.80;;;-0.50;99.90;;;;;;10489204;28;20887;-83
2022/11/18 12:40:50;;;;;;;40.70;23.67;;;-0.40;99.90;;;;;;10469684;28;20126;-81
2022/11/18 12:45:53;;;;;;;39.97;24.73;;;-0.50;99.90;;;;;;10480969;28;20140;-81
2022/11/18 12:50:59;;;;;;;36.57;16.60;;;-0.60;99.90;;;;;;10489212;28;20586;-81
2022/11/18 12:56:08;;;;;;;;;;;-0.60;99.90;;;;;;10489824;28;20063;-82
2022/11/18 13:01:11;;;;;;;35.30;14.53;;;-0.60;99.90;;;;;;10460928;28;19908;-80
2022/11/18 13:06:23;;;;;;;36.67;16.87;;;-0.60;99.90;;;;;;10453209;28;20657;-80
2022/11/18 13:11:43;;;;;;;37.53;17.93;;;-0.60;99.90;;;;;;10451885;28;20483;-82
2022/11/18 13:27:47;;;;;;;34.33;15.90;;;-0.60;99.90;;;;;;10446117;28;20044;-80
2022/11/18 13:32:50;;;;;;;32.30;15.83;;;-0.50;99.90;;;;;;10454939;28;20031;-83
2022/11/18 13:37:53;;;;;;;37.37;16.63;;;-0.50;99.90;;;;;;10444546;28;20033;-81
2022/11/18 13:42:54;;;;;;;39.00;16.20;;;-0.50;99.90;;;;;;10456185;28;20099;-81
2022/11/18 13:48:06;;;;;;;34.13;14.73;;;-0.50;99.90;;;;;;10446615;28;20492;-83
2022/11/18 13:53:25;;;;;;;35.10;15.27;;;-0.50;99.90;;;;;;10456506;28;20094;-83
2022/11/18 13:58:42;;;;;;;34.53;15.07;;;-0.60;99.90;;;;;;10455994;28;20040;-80
2022/11/18 14:04:02;;;;;;;32.40;14.60;;;-0.70;99.90;;;;;;10473911;28;20044;-83
2022/11/18 14:09:23;;;;;;;35.27;15.70;;;-0.70;99.90;;;;;;10452579;28;20049;-82
2022/11/18 14:14:36;;;;;;;32.97;15.83;;;-0.60;99.90;;;;;;10474345;28;20783;-80
2022/11/18 14:19:37;;;;;;;37.53;16.97;;;-0.70;99.90;;;;;;10451323;28;20024;-81
2022/11/18 14:24:39;;;;;;;41.03;16.73;;;-0.60;99.90;;;;;;10453825;28;20075;-81
2022/11/18 14:29:48;;;;;;;94.30;39.23;;;-0.60;99.90;;;;;;10445437;28;20112;-82
2022/11/18 14:35:01;;;;;;;35.90;15.37;;;-0.60;99.90;;;;;;10450287;28;20028;-80
2022/11/18 14:40:01;;;;;;;40.90;18.20;;;-0.70;99.90;;;;;;10452424;28;20020;-79
2022/11/18 14:45:02;;;;;;;71.30;28.50;;;-0.70;99.90;;;;;;10434346;28;20048;-80
2022/11/18 14:50:10;;;;;;;32.57;16.30;;;-0.70;99.90;;;;;;10451830;28;20034;-80
2022/11/18 14:55:12;;;;;;;291.00;113.87;;;-0.70;99.90;;;;;;10465959;28;20031;-81
2022/11/18 15:00:15;;;;;;;65.77;33.53;;;-0.80;99.90;;;;;;10443371;28;20033;-80
2022/11/18 15:05:15;;;;;;;691.43;324.43;;;-0.80;99.90;;;;;;10455992;28;20593;-81
2022/11/18 15:10:16;;;;;;;49.97;20.67;;;-0.90;99.90;;;;;;10425495;28;20219;-77
2022/11/18 15:15:17;;;;;;;691.47;315.67;;;-0.90;99.90;;;;;;10453631;28;20090;-80
2022/11/18 15:20:20;;;;;;;123.57;50.40;;;-1.00;99.90;;;;;;10452625;28;20025;-79
2022/11/18 15:25:20;;;;;;;169.73;76.97;;;-1.00;99.90;;;;;;10435537;28;20041;-80
2022/11/18 15:30:21;;;;;;;51.20;20.90;;;-1.00;99.90;;;;;;10400365;28;20029;-81
2022/11/18 15:35:21;;;;;;;58.97;30.27;;;-0.90;99.90;;;;;;10450110;28;20111;-80
2022/11/18 15:40:22;;;;;;;50.80;27.40;;;-0.80;99.90;;;;;;10477550;28;20059;-80
2022/11/18 15:45:22;;;;;;;52.47;32.17;;;-0.80;99.90;;;;;;10474527;28;20127;-80
2022/11/18 15:50:23;;;;;;;48.40;23.67;;;-0.90;99.90;;;;;;10477748;28;20044;-81
2022/11/18 15:55:23;;;;;;;47.03;23.90;;;-0.70;99.90;;;;;;10475811;28;20032;-80
2022/11/18 16:00:24;;;;;;;47.27;25.27;;;-0.80;99.90;;;;;;10463344;28;20044;-79
2022/11/18 16:05:24;;;;;;;46.60;20.53;;;-0.70;99.90;;;;;;10489212;28;20747;-79
2022/11/18 16:15:48;;;;;;;35.73;16.13;;;-0.70;99.90;;;;;;10487252;28;20048;-80
2022/11/18 16:20:55;;;;;;;33.87;17.47;;;-0.80;99.90;;;;;;10490771;28;20041;-82
2022/11/18 16:25:56;;;;;;;32.13;14.47;;;-0.80;99.90;;;;;;10475198;28;20044;-79
2022/11/18 16:36:16;;;;;;;30.97;14.63;;;-1.10;99.90;;;;;;10464576;28;20044;-82
2022/11/18 16:41:32;;;;;;;31.43;15.77;;;-1.10;99.90;;;;;;10480026;28;20485;-80
2022/11/18 16:46:35;;;;;;;34.85;14.93;;;-1.20;99.90;;;;;;10486832;28;20159;-80
2022/11/18 16:51:35;;;;;;;35.53;16.00;;;-1.20;99.90;;;;;;10474355;28;20877;-79
2022/11/18 16:56:39;;;;;;;37.37;16.73;;;-1.10;99.90;;;;;;10470768;28;20039;-80
2022/11/18 17:01:40;;;;;;;34.17;16.73;;;-1.10;99.90;;;;;;10461801;28;20377;-80
2022/11/18 17:06:41;;;;;;;32.43;14.77;;;-1.10;99.90;;;;;;10467256;28;20151;-80
2022/11/18 17:11:41;;;;;;;34.00;14.53;;;-1.20;99.90;;;;;;10479801;28;20059;-80
2022/11/18 17:16:42;;;;;;;33.13;15.43;;;-1.20;99.90;;;;;;10459516;28;20024;-79
2022/11/18 17:21:43;;;;;;;47.53;17.63;;;-1.20;99.90;;;;;;10467548;28;20484;-80
2022/11/18 17:26:44;;;;;;;86.27;26.10;;;-1.10;99.90;;;;;;10464640;28;20120;-80
2022/11/18 17:31:45;;;;;;;34.03;14.57;;;-1.10;99.90;;;;;;10473962;28;20028;-80
2022/11/18 17:36:45;;;;;;;41.03;15.83;;;-1.10;99.90;;;;;;10471265;28;20088;-82
2022/11/18 17:47:05;;;;;;;35.43;15.47;;;-1.20;99.90;;;;;;10460265;28;20056;-79
2022/11/18 17:52:06;;;;;;;34.37;14.23;;;-1.20;99.90;;;;;;10445097;28;20429;-80
2022/11/18 17:57:06;;;;;;;29.13;12.23;;;-1.10;99.90;;;;;;10472824;28;20387;-81
2022/11/18 18:02:10;;;;;;;36.87;14.80;;;-1.20;99.90;;;;;;10472148;28;20036;-80
2022/11/18 18:07:11;;;;;;;30.43;14.00;;;-1.20;99.90;;;;;;10468846;28;20068;-82
2022/11/18 18:17:30;;;;;;;31.37;14.07;;;-1.20;99.90;;;;;;10432956;28;20041;-83
2022/11/18 18:22:31;;;;;;;31.00;13.93;;;-1.10;99.90;;;;;;10446775;28;20037;-83
2022/11/18 18:27:31;;;;;;;31.57;12.27;;;-1.10;99.90;;;;;;10411143;28;20170;-81
2022/11/18 18:32:32;;;;;;;32.23;14.10;;;-1.10;99.90;;;;;;10429697;28;20033;-81
2022/11/18 18:37:36;;;;;;;28.47;12.63;;;-1.00;99.90;;;;;;10452805;28;20741;-81
2022/11/18 18:42:37;;;;;;;26.43;11.07;;;-1.00;99.90;;;;;;10447429;28;20040;-82
2022/11/18 18:47:37;;;;;;;24.73;10.87;;;-1.10;99.90;;;;;;10467160;28;20480;-82
2022/11/18 18:52:38;;;;;;;26.53;12.00;;;-1.10;99.90;;;;;;10473692;28;20032;-82
2022/11/18 18:57:38;;;;;;;26.63;11.43;;;-1.00;99.90;;;;;;10459640;28;20038;-81
2022/11/18 19:02:39;;;;;;;26.03;10.47;;;-1.00;99.90;;;;;;10477841;28;20048;-83
2022/11/18 19:07:42;;;;;;;26.13;11.50;;;-1.10;99.90;;;;;;10471879;28;20815;-80
2022/11/18 19:12:42;;;;;;;21.50;10.47;;;-1.10;99.90;;;;;;10462154;28;20051;-80
2022/11/18 19:17:43;;;;;;;19.37;8.00;;;-1.10;99.90;;;;;;10466774;28;20400;-81
2022/11/18 19:22:43;;;;;;;22.50;8.63;;;-1.10;99.90;;;;;;10476535;28;20036;-81
2022/11/18 19:27:45;;;;;;;17.33;8.30;;;-1.10;99.90;;;;;;10468874;28;20033;-80
2022/11/18 19:32:45;;;;;;;21.83;8.97;;;-1.10;99.90;;;;;;10451741;28;20495;-80
2022/11/18 19:37:46;;;;;;;17.23;8.07;;;-1.00;99.90;;;;;;10462284;28;20037;-80
2022/11/18 19:42:46;;;;;;;18.40;8.60;;;-1.00;99.90;;;;;;10464877;28;20025;-81
2022/11/18 19:47:47;;;;;;;19.70;7.67;;;-1.00;99.90;;;;;;10457109;28;20035;-82
2022/11/18 19:52:47;;;;;;;18.53;7.77;;;-1.00;99.90;;;;;;10446635;28;20024;-80
2022/11/18 19:57:48;;;;;;;14.13;6.37;;;-1.10;99.90;;;;;;10455285;28;20028;-82
2022/11/18 20:02:48;;;;;;;13.43;6.40;;;-1.00;99.90;;;;;;10451583;28;20045;-80
2022/11/18 20:07:54;;;;;;;16.60;6.97;;;-1.10;99.90;;;;;;10443985;28;20049;-81
2022/11/18 20:12:56;;;;;;;15.07;6.45;;;-1.20;99.90;;;;;;10475961;28;20118;-83
2022/11/18 20:17:57;;;;;;;14.47;7.70;;;-1.30;99.90;;;;;;10452136;28;20033;-81
2022/11/18 20:22:57;;;;;;;13.47;6.17;;;-1.40;99.90;;;;;;10482579;28;20024;-80
2022/11/18 20:27:58;;;;;;;21.70;8.53;;;-1.30;99.90;;;;;;10455239;28;20149;-80
2022/11/18 20:32:58;;;;;;;17.67;7.90;;;-1.30;99.90;;;;;;10478510;28;20032;-79
2022/11/18 20:38:00;;;;;;;22.83;9.27;;;-1.20;99.90;;;;;;10460116;28;20060;-80
2022/11/18 20:43:13;;;;;;;26.63;10.53;;;-1.10;99.90;;;;;;10453360;28;20560;-80
2022/11/18 20:48:13;;;;;;;32.47;12.93;;;-1.00;99.90;;;;;;10452943;28;20107;-82
2022/11/18 20:53:15;;;;;;;27.17;12.53;;;-1.00;99.90;;;;;;10476407;28;20029;-81
2022/11/18 20:58:16;;;;;;;26.70;11.43;;;-0.90;99.90;;;;;;10453444;28;20029;-81
2022/11/18 21:03:17;;;;;;;33.73;13.00;;;-0.90;99.90;;;;;;10453350;28;20029;-82
2022/11/18 21:08:17;;;;;;;29.97;12.90;;;-0.80;99.90;;;;;;10458107;28;20501;-80
2022/11/18 21:18:37;;;;;;;26.90;11.57;;;-0.80;99.90;;;;;;10463921;28;20037;-80
2022/11/18 21:23:37;;;;;;;27.63;12.13;;;-0.80;99.90;;;;;;10468104;28;20037;-82
2022/11/18 21:28:38;;;;;;;27.70;11.20;;;-0.90;99.90;;;;;;10460546;28;20044;-80
2022/11/18 21:33:39;;;;;;;29.57;12.50;;;-1.00;99.90;;;;;;10452705;28;20067;-80
2022/11/18 21:38:39;;;;;;;25.93;11.47;;;-1.00;99.90;;;;;;10450697;28;20079;-80
2022/11/18 21:43:40;;;;;;;27.60;11.90;;;-1.00;99.90;;;;;;10427761;28;20035;-81
2022/11/18 21:48:41;;;;;;;27.13;11.77;;;-0.90;99.90;;;;;;10465905;28;20344;-82
2022/11/18 21:53:42;;;;;;;27.87;12.13;;;-0.90;99.90;;;;;;10485111;28;20036;-80
2022/11/18 21:58:42;;;;;;;31.10;12.33;;;-0.90;99.90;;;;;;10454773;28;20033;-81
2022/11/18 22:03:46;;;;;;;29.13;12.30;;;-0.90;99.90;;;;;;10436127;28;20080;-82
2022/11/18 22:08:47;;;;;;;28.73;12.83;;;-0.90;99.90;;;;;;10483994;28;20125;-81
2022/11/18 22:13:50;;;;;;;28.37;11.87;;;-0.90;99.90;;;;;;10456356;28;20082;-81
2022/11/18 22:18:54;;;;;;;32.30;13.87;;;-1.00;99.90;;;;;;10448208;28;20384;-81
2022/11/18 22:23:58;;;;;;;27.30;13.33;;;-1.00;99.90;;;;;;10460519;28;20024;-81
2022/11/18 22:28:58;;;;;;;24.37;10.87;;;-0.90;99.90;;;;;;10464534;28;20029;-82
2022/11/18 22:33:59;;;;;;;21.87;11.17;;;-1.00;99.90;;;;;;10461889;28;20036;-82
2022/11/18 22:38:59;;;;;;;26.37;12.27;;;-1.00;99.90;;;;;;10465305;28;20037;-82
2022/11/18 22:44:04;;;;;;;21.73;10.37;;;-1.00;99.90;;;;;;10466841;28;20095;-83
2022/11/18 22:49:06;;;;;;;20.63;10.40;;;-1.00;99.90;;;;;;10465523;28;20649;-82
2022/11/18 22:54:07;;;;;;;24.13;11.47;;;-1.00;99.90;;;;;;10464264;28;20115;-81
2022/11/18 22:59:10;;;;;;;25.13;11.70;;;-1.10;99.90;;;;;;10466217;28;20502;-81
2022/11/18 23:04:10;;;;;;;22.87;10.60;;;-1.10;99.90;;;;;;10475290;28;20086;-81
2022/11/18 23:09:11;;;;;;;19.93;10.00;;;-1.10;99.90;;;;;;10440559;28;20617;-81
2022/11/18 23:14:11;;;;;;;21.47;10.10;;;-1.10;99.90;;;;;;10466142;28;20090;-82
2022/11/18 23:19:14;;;;;;;18.80;9.50;;;-1.00;99.90;;;;;;10460957;28;20032;-81
2022/11/18 23:24:17;;;;;;;20.47;9.57;;;-1.00;99.90;;;;;;10483574;28;20761;-81
2022/11/18 23:29:18;;;;;;;19.83;9.17;;;-1.00;99.90;;;;;;10451535;28;20047;-81
2022/11/18 23:34:19;;;;;;;19.87;9.40;;;-1.10;99.90;;;;;;10466256;28;20065;-81
2022/11/18 23:39:20;;;;;;;21.83;9.73;;;-1.00;99.90;;;;;;10462022;28;20601;-81
2022/11/18 23:44:43;;;;;;;20.57;9.10;;;-1.00;99.90;;;;;;10460628;28;20472;-82
2022/11/18 23:49:41;;;;;;;21.37;10.50;;;-1.10;99.90;;;;;;10408924;28;20564;-82
2022/11/18 23:54:42;;;;;;;23.37;10.40;;;-1.20;99.90;;;;;;10406005;28;20029;-82
2022/11/18 23:59:42;;;;;;;22.57;10.57;;;-1.10;99.90;;;;;;10437247;28;20025;-83
